sensor_id;sensor_type;location;lat;lon;timestamp;pressure;altitude;pressure_sealevel;temperature;humidity
19890;BME280;10107;51.198;6.824;2023-03-26T00:02:25;-21528.75;;;7.96;100.00
19890;BME280;10107;51.198;6.824;2023-03-26T00:06:32;-21526.75;;;7.88;100.00
19890;BME280;10107;51.198;6.824;2023-03-26T00:10:37;-21525.16;;;7.82;100.00
19890;BME280;10107;51.198;6.824;2023-03-26T00:14:40;-21522.50;;;7.71;100.00
19890;BME280;10107;51.198;6.824;2023-03-26T00:18:43;-21520.63;;;7.64;100.00
19890;BME280;10107;51.198;6.824;2023-03-26T00:22:45;-21519.56;;;7.60;100.00
19890;BME280;10107;51.198;6.824;2023-03-26T00:26:47;-21520.34;;;7.63;100.00
19890;BME280;10107;51.198;6.824;2023-03-26T00:30:57;-21523.03;;;7.73;100.00
19890;BME280;10107;51.198;6.824;2023-03-26T00:35:01;-21524.34;;;7.79;100.00
19890;BME280;10107;51.198;6.824;2023-03-26T00:39:03;-21524.63;;;7.80;100.00
19890;BME280;10107;51.198;6.824;2023-03-26T00:43:05;-21524.47;;;7.79;100.00
19890;BME280;10107;51.198;6.824;2023-03-26T00:47:17;-21525.28;;;7.82;100.00
19890;BME280;10107;51.198;6.824;2023-03-26T00:51:20;-21525.28;;;7.82;100.00
19890;BME280;10107;51.198;6.824;2023-03-26T00:55:22;-21523.81;;;7.77;100.00
19890;BME280;10107;51.198;6.824;2023-03-26T00:59:24;-21521.44;;;7.67;100.00
19890;BME280;10107;51.198;6.824;2023-03-26T01:03:33;-21520.88;;;7.65;100.00
19890;BME280;10107;51.198;6.824;2023-03-26T01:07:37;-21521.03;;;7.66;100.00
19890;BME280;10107;51.198;6.824;2023-03-26T01:11:39;-21522.09;;;7.70;100.00
19890;BME280;10107;51.198;6.824;2023-03-26T01:15:41;-21522.75;;;7.72;100.00
19890;BME280;10107;51.198;6.824;2023-03-26T01:19:47;-21523.16;;;7.74;100.00
19890;BME280;10107;51.198;6.824;2023-03-26T01:23:58;-21521.28;;;7.67;100.00
19890;BME280;10107;51.198;6.824;2023-03-26T01:28:00;-21519.44;;;7.60;100.00
19890;BME280;10107;51.198;6.824;2023-03-26T01:32:11;-21517.56;;;7.52;100.00
19890;BME280;10107;51.198;6.824;2023-03-26T01:36:22;-21515.44;;;7.44;100.00
19890;BME280;10107;51.198;6.824;2023-03-26T01:40:29;-21513.97;;;7.39;100.00
19890;BME280;10107;51.198;6.824;2023-03-26T01:44:45;-21511.84;;;7.30;100.00
19890;BME280;10107;51.198;6.824;2023-03-26T01:48:50;-21509.97;;;7.23;100.00
19890;BME280;10107;51.198;6.824;2023-03-26T01:52:52;-21508.09;;;7.16;100.00
19890;BME280;10107;51.198;6.824;2023-03-26T01:57:01;-21506.13;;;7.08;100.00
19890;BME280;10107;51.198;6.824;2023-03-26T02:01:12;-21504.78;;;7.03;100.00
19890;BME280;10107;51.198;6.824;2023-03-26T02:05:20;-21502.38;;;6.94;100.00
19890;BME280;10107;51.198;6.824;2023-03-26T02:09:26;-21499.31;;;6.82;100.00
19890;BME280;10107;51.198;6.824;2023-03-26T02:13:31;-21497.19;;;6.74;100.00
19890;BME280;10107;51.198;6.824;2023-03-26T02:17:33;-21495.72;;;6.68;100.00
19890;BME280;10107;51.198;6.824;2023-03-26T02:21:39;-21495.47;;;6.67;100.00
19890;BME280;10107;51.198;6.824;2023-03-26T02:25:41;-21496.13;;;6.70;100.00
19890;BME280;10107;51.198;6.824;2023-03-26T02:29:44;-21497.59;;;6.76;100.00
19890;BME280;10107;51.198;6.824;2023-03-26T02:33:47;-21497.59;;;6.76;100.00
19890;BME280;10107;51.198;6.824;2023-03-26T02:37:49;-21496.53;;;6.71;100.00
19890;BME280;10107;51.198;6.824;2023-03-26T02:41:54;-21494.53;;;6.64;100.00
19890;BME280;10107;51.198;6.824;2023-03-26T02:45:57;-21491.72;;;6.53;100.00
19890;BME280;10107;51.198;6.824;2023-03-26T02:50:17;-21488.25;;;6.40;100.00
19890;BME280;10107;51.198;6.824;2023-03-26T02:54:48;-21485.31;;;6.28;100.00
19890;BME280;10107;51.198;6.824;2023-03-26T02:58:54;-21482.13;;;6.16;100.00
19890;BME280;10107;51.198;6.824;2023-03-26T03:02:57;-21480.25;;;6.09;100.00
19890;BME280;10107;51.198;6.824;2023-03-26T03:07:05;-21479.47;;;6.06;100.00
19890;BME280;10107;51.198;6.824;2023-03-26T03:11:09;-21479.06;;;6.04;100.00
19890;BME280;10107;51.198;6.824;2023-03-26T03:15:21;-21478.78;;;6.03;100.00
19890;BME280;10107;51.198;6.824;2023-03-26T03:19:24;-21478.53;;;6.02;100.00
19890;BME280;10107;51.198;6.824;2023-03-26T03:23:26;-21478.78;;;6.03;100.00
19890;BME280;10107;51.198;6.824;2023-03-26T03:27:38;-21480.13;;;6.08;100.00
19890;BME280;10107;51.198;6.824;2023-03-26T03:31:44;-21481.31;;;6.13;100.00
19890;BME280;10107;51.198;6.824;2023-03-26T03:36:01;-21481.72;;;6.14;100.00
19890;BME280;10107;51.198;6.824;2023-03-26T03:40:10;-21482.94;;;6.19;100.00
19890;BME280;10107;51.198;6.824;2023-03-26T03:44:13;-21484.78;;;6.26;100.00
19890;BME280;10107;51.198;6.824;2023-03-26T03:48:14;-21486.78;;;6.34;100.00
19890;BME280;10107;51.198;6.824;2023-03-26T03:52:21;-21489.31;;;6.44;100.00
19890;BME280;10107;51.198;6.824;2023-03-26T03:56:23;-21491.59;;;6.52;100.00
19890;BME280;10107;51.198;6.824;2023-03-26T04:00:45;-21493.47;;;6.60;100.00
19890;BME280;10107;51.198;6.824;2023-03-26T04:05:13;-21494.78;;;6.65;100.00
19890;BME280;10107;51.198;6.824;2023-03-26T04:09:21;-21496.53;;;6.71;100.00
19890;BME280;10107;51.198;6.824;2023-03-26T04:13:24;-21498.38;;;6.79;100.00
19890;BME280;10107;51.198;6.824;2023-03-26T04:17:45;-21499.59;;;6.83;100.00
19890;BME280;10107;51.198;6.824;2023-03-26T04:21:49;-21500.00;;;6.85;100.00
19890;BME280;10107;51.198;6.824;2023-03-26T04:25:55;-21500.25;;;6.86;100.00
19890;BME280;10107;51.198;6.824;2023-03-26T04:30:13;-21500.78;;;6.88;100.00
19890;BME280;10107;51.198;6.824;2023-03-26T04:34:20;-21501.31;;;6.90;100.00
19890;BME280;10107;51.198;6.824;2023-03-26T04:38:43;-21502.00;;;6.92;100.00
19890;BME280;10107;51.198;6.824;2023-03-26T04:42:49;-21502.13;;;6.93;100.00
19890;BME280;10107;51.198;6.824;2023-03-26T04:47:15;-21501.31;;;6.90;100.00
19890;BME280;10107;51.198;6.824;2023-03-26T04:51:23;-21501.19;;;6.89;100.00
19890;BME280;10107;51.198;6.824;2023-03-26T04:55:32;-21500.53;;;6.87;100.00
19890;BME280;10107;51.198;6.824;2023-03-26T04:59:44;-21500.00;;;6.85;100.00
19890;BME280;10107;51.198;6.824;2023-03-26T05:03:47;-21499.59;;;6.83;100.00
19890;BME280;10107;51.198;6.824;2023-03-26T05:07:50;-21499.47;;;6.83;100.00
19890;BME280;10107;51.198;6.824;2023-03-26T05:11:53;-21499.19;;;6.82;100.00
19890;BME280;10107;51.198;6.824;2023-03-26T05:15:58;-21498.38;;;6.79;100.00
19890;BME280;10107;51.198;6.824;2023-03-26T05:20:15;-21498.53;;;6.79;100.00
19890;BME280;10107;51.198;6.824;2023-03-26T05:24:20;-21498.78;;;6.80;100.00
19890;BME280;10107;51.198;6.824;2023-03-26T05:28:24;-21499.59;;;6.83;100.00
19890;BME280;10107;51.198;6.824;2023-03-26T05:32:41;-21500.00;;;6.85;100.00
19890;BME280;10107;51.198;6.824;2023-03-26T05:36:42;-21500.53;;;6.87;100.00
19890;BME280;10107;51.198;6.824;2023-03-26T05:41:07;-21501.72;;;6.91;100.00
19890;BME280;10107;51.198;6.824;2023-03-26T05:45:14;-21502.66;;;6.95;100.00
19890;BME280;10107;51.198;6.824;2023-03-26T05:49:17;-21503.19;;;6.97;100.00
19890;BME280;10107;51.198;6.824;2023-03-26T05:53:20;-21503.84;;;7.00;100.00
19890;BME280;10107;51.198;6.824;2023-03-26T05:57:40;-21503.72;;;6.99;100.00
19890;BME280;10107;51.198;6.824;2023-03-26T06:02:01;-21504.78;;;7.03;100.00
19890;BME280;10107;51.198;6.824;2023-03-26T06:06:22;-21505.97;;;7.08;100.00
19890;BME280;10107;51.198;6.824;2023-03-26T06:10:31;-21506.66;;;7.10;100.00
19890;BME280;10107;51.198;6.824;2023-03-26T06:14:33;-21507.56;;;7.14;100.00
19890;BME280;10107;51.198;6.824;2023-03-26T06:18:42;-21508.25;;;7.17;100.00
19890;BME280;10107;51.198;6.824;2023-03-26T06:23:04;-21509.03;;;7.20;100.00
19890;BME280;10107;51.198;6.824;2023-03-26T06:27:32;-21509.44;;;7.21;100.00
19890;BME280;10107;51.198;6.824;2023-03-26T06:31:52;-21508.66;;;7.18;100.00
19890;BME280;10107;51.198;6.824;2023-03-26T06:36:08;-21509.19;;;7.20;100.00
19890;BME280;10107;51.198;6.824;2023-03-26T06:40:12;-21509.97;;;7.23;100.00
19890;BME280;10107;51.198;6.824;2023-03-26T06:44:26;-21509.03;;;7.20;100.00
19890;BME280;10107;51.198;6.824;2023-03-26T06:48:47;-21508.09;;;7.16;100.00
19890;BME280;10107;51.198;6.824;2023-03-26T06:53:11;-21508.78;;;7.19;100.00
19890;BME280;10107;51.198;6.824;2023-03-26T06:57:37;-21509.97;;;7.23;100.00
19890;BME280;10107;51.198;6.824;2023-03-26T07:02:03;-21510.63;;;7.26;100.00
19890;BME280;10107;51.198;6.824;2023-03-26T07:06:23;-21512.09;;;7.31;100.00
19890;BME280;10107;51.198;6.824;2023-03-26T07:10:43;-21513.31;;;7.36;100.00
19890;BME280;10107;51.198;6.824;2023-03-26T07:15:02;-21514.22;;;7.40;100.00
19890;BME280;10107;51.198;6.824;2023-03-26T07:19:20;-21516.38;;;7.48;100.00
19890;BME280;10107;51.198;6.824;2023-03-26T07:23:23;-21518.09;;;7.54;100.00
19890;BME280;10107;51.198;6.824;2023-03-26T07:27:36;-21517.84;;;7.53;100.00
19890;BME280;10107;51.198;6.824;2023-03-26T07:31:48;-21519.44;;;7.60;100.00
19890;BME280;10107;51.198;6.824;2023-03-26T07:36:19;-21521.97;;;7.69;100.00
19890;BME280;10107;51.198;6.824;2023-03-26T07:40:40;-21523.28;;;7.74;100.00
19890;BME280;10107;51.198;6.824;2023-03-26T07:45:11;-21526.06;;;7.85;100.00
19890;BME280;10107;51.198;6.824;2023-03-26T07:49:23;-21525.69;;;7.84;100.00
19890;BME280;10107;51.198;6.824;2023-03-26T07:53:38;-21526.75;;;7.88;100.00
19890;BME280;10107;51.198;6.824;2023-03-26T07:58:00;-21527.69;;;7.91;100.00
19890;BME280;10107;51.198;6.824;2023-03-26T08:02:37;-21527.53;;;7.91;100.00
19890;BME280;10107;51.198;6.824;2023-03-26T08:07:28;-21527.81;;;7.92;100.00
19890;BME280;10107;51.198;6.824;2023-03-26T08:11:53;-21528.75;;;7.96;100.00
19890;BME280;10107;51.198;6.824;2023-03-26T08:16:02;-21527.69;;;7.91;100.00
19890;BME280;10107;51.198;6.824;2023-03-26T08:20:16;-21527.00;;;7.89;100.00
19890;BME280;10107;51.198;6.824;2023-03-26T08:24:30;-21528.75;;;7.96;100.00
19890;BME280;10107;51.198;6.824;2023-03-26T08:28:47;-21526.06;;;7.85;100.00
19890;BME280;10107;51.198;6.824;2023-03-26T08:32:54;-21525.69;;;7.84;100.00
19890;BME280;10107;51.198;6.824;2023-03-26T08:36:56;-21527.00;;;7.89;100.00
19890;BME280;10107;51.198;6.824;2023-03-26T08:45:54;-21527.53;;;7.91;100.00
19890;BME280;10107;51.198;6.824;2023-03-26T08:50:20;-21528.88;;;7.96;100.00
19890;BME280;10107;51.198;6.824;2023-03-26T08:55:01;-21529.00;;;7.97;100.00
19890;BME280;10107;51.198;6.824;2023-03-26T08:59:37;-21525.81;;;7.84;100.00
19890;BME280;10107;51.198;6.824;2023-03-26T09:03:55;-21525.94;;;7.85;100.00
19890;BME280;10107;51.198;6.824;2023-03-26T09:08:24;-21526.22;;;7.86;100.00
19890;BME280;10107;51.198;6.824;2023-03-26T09:12:56;-21525.94;;;7.85;100.00
19890;BME280;10107;51.198;6.824;2023-03-26T09:22:05;-21523.03;;;7.73;100.00
19890;BME280;10107;51.198;6.824;2023-03-26T09:26:26;-21522.63;;;7.72;100.00
19890;BME280;10107;51.198;6.824;2023-03-26T09:30:57;-21519.56;;;7.60;100.00
19890;BME280;10107;51.198;6.824;2023-03-26T09:35:13;-21518.38;;;7.56;100.00
19890;BME280;10107;51.198;6.824;2023-03-26T09:39:31;-21520.09;;;7.62;100.00
19890;BME280;10107;51.198;6.824;2023-03-26T09:43:46;-21521.28;;;7.67;100.00
19890;BME280;10107;51.198;6.824;2023-03-26T09:48:08;-21521.97;;;7.69;100.00
19890;BME280;10107;51.198;6.824;2023-03-26T09:52:26;-21523.28;;;7.74;100.00
19890;BME280;10107;51.198;6.824;2023-03-26T09:56:47;-21522.75;;;7.72;100.00
19890;BME280;10107;51.198;6.824;2023-03-26T10:00:56;-21526.22;;;7.86;100.00
19890;BME280;10107;51.198;6.824;2023-03-26T10:05:21;-21527.81;;;7.92;100.00
19890;BME280;10107;51.198;6.824;2023-03-26T10:09:39;-21528.06;;;7.93;100.00
19890;BME280;10107;51.198;6.824;2023-03-26T10:14:02;-21528.34;;;7.94;100.00
19890;BME280;10107;51.198;6.824;2023-03-26T10:18:13;-21529.41;;;7.98;100.00
19890;BME280;10107;51.198;6.824;2023-03-26T10:22:28;-21531.94;;;8.08;100.00
19890;BME280;10107;51.198;6.824;2023-03-26T10:26:52;-21536.72;;;8.26;100.00
19890;BME280;10107;51.198;6.824;2023-03-26T10:31:16;-21536.19;;;8.24;100.00
19890;BME280;10107;51.198;6.824;2023-03-26T10:35:35;-21538.97;;;8.35;100.00
19890;BME280;10107;51.198;6.824;2023-03-26T10:39:49;-21539.09;;;8.36;100.00
19890;BME280;10107;51.198;6.824;2023-03-26T10:44:14;-21538.03;;;8.31;100.00
19890;BME280;10107;51.198;6.824;2023-03-26T10:48:29;-21542.03;;;8.47;100.00
19890;BME280;10107;51.198;6.824;2023-03-26T10:52:41;-21548.41;;;8.71;100.00
19890;BME280;10107;51.198;6.824;2023-03-26T10:56:45;-21555.84;;;9.00;100.00
19890;BME280;10107;51.198;6.824;2023-03-26T11:00:54;-21558.91;;;9.12;100.00
19890;BME280;10107;51.198;6.824;2023-03-26T11:05:10;-21558.38;;;9.10;100.00
19890;BME280;10107;51.198;6.824;2023-03-26T11:09:23;-21561.81;;;9.23;100.00
19890;BME280;10107;51.198;6.824;2023-03-26T11:13:42;-21561.16;;;9.21;100.00
19890;BME280;10107;51.198;6.824;2023-03-26T11:17:56;-21561.81;;;9.23;100.00
19890;BME280;10107;51.198;6.824;2023-03-26T11:22:05;-21558.91;;;9.12;100.00
19890;BME280;10107;51.198;6.824;2023-03-26T11:26:12;-21553.59;;;8.91;100.00
19890;BME280;10107;51.198;6.824;2023-03-26T11:30:26;-21552.53;;;8.87;100.00
19890;BME280;10107;51.198;6.824;2023-03-26T11:34:34;-21549.47;;;8.76;100.00
19890;BME280;10107;51.198;6.824;2023-03-26T11:38:40;-21549.59;;;8.76;100.00
19890;BME280;10107;51.198;6.824;2023-03-26T11:42:46;-21557.97;;;9.08;100.00
19890;BME280;10107;51.198;6.824;2023-03-26T11:46:52;-21565.53;;;9.38;100.00
19890;BME280;10107;51.198;6.824;2023-03-26T11:51:01;-21568.47;;;9.49;100.00
19890;BME280;10107;51.198;6.824;2023-03-26T11:55:05;-21564.88;;;9.35;100.00
19890;BME280;10107;51.198;6.824;2023-03-26T11:59:10;-21564.47;;;9.34;100.00
19890;BME280;10107;51.198;6.824;2023-03-26T12:03:14;-21569.53;;;9.53;100.00
19890;BME280;10107;51.198;6.824;2023-03-26T12:07:19;-21567.81;;;9.46;100.00
19890;BME280;10107;51.198;6.824;2023-03-26T12:11:25;-21571.13;;;9.59;100.00
19890;BME280;10107;51.198;6.824;2023-03-26T12:15:29;-21582.53;;;10.03;100.00
19890;BME280;10107;51.198;6.824;2023-03-26T12:19:37;-21592.06;;;10.40;100.00
19890;BME280;10107;51.198;6.824;2023-03-26T12:23:53;-21589.00;;;10.28;100.00
19890;BME280;10107;51.198;6.824;2023-03-26T12:27:58;-21580.94;;;9.97;100.00
19890;BME280;10107;51.198;6.824;2023-03-26T12:32:05;-21573.22;;;9.67;100.00
19890;BME280;10107;51.198;6.824;2023-03-26T12:36:19;-21569.91;;;9.55;100.00
19890;BME280;10107;51.198;6.824;2023-03-26T12:40:29;-21572.03;;;9.63;100.00
19890;BME280;10107;51.198;6.824;2023-03-26T12:44:33;-21570.97;;;9.59;100.00
19890;BME280;10107;51.198;6.824;2023-03-26T12:48:36;-21570.31;;;9.56;100.00
19890;BME280;10107;51.198;6.824;2023-03-26T12:52:46;-21569.53;;;9.53;100.00
19890;BME280;10107;51.198;6.824;2023-03-26T12:57:04;-21571.13;;;9.59;100.00
19890;BME280;10107;51.198;6.824;2023-03-26T13:01:15;-21570.06;;;9.55;100.00
19890;BME280;10107;51.198;6.824;2023-03-26T13:05:35;-21569.38;;;9.52;100.00
19890;BME280;10107;51.198;6.824;2023-03-26T13:09:52;-21569.66;;;9.54;100.00
19890;BME280;10107;51.198;6.824;2023-03-26T13:14:04;-21577.22;;;9.83;100.00
19890;BME280;10107;51.198;6.824;2023-03-26T13:18:17;-21586.63;;;10.19;100.00
19890;BME280;10107;51.198;6.824;2023-03-26T13:22:25;-21598.03;;;10.63;100.00
19890;BME280;10107;51.198;6.824;2023-03-26T13:26:40;-21607.56;;;11.00;100.00
19890;BME280;10107;51.198;6.824;2023-03-26T13:30:56;-21614.56;;;11.27;100.00
19890;BME280;10107;51.198;6.824;2023-03-26T13:35:10;-21619.06;;;11.45;100.00
19890;BME280;10107;51.198;6.824;2023-03-26T13:39:20;-21616.94;;;11.37;100.00
19890;BME280;10107;51.198;6.824;2023-03-26T13:43:37;-21611.94;;;11.17;100.00
19890;BME280;10107;51.198;6.824;2023-03-26T13:47:48;-21600.41;;;10.73;100.00
19890;BME280;10107;51.198;6.824;2023-03-26T13:51:54;-21590.75;;;10.35;100.00
19890;BME280;10107;51.198;6.824;2023-03-26T13:55:58;-21582.53;;;10.03;100.00
19890;BME280;10107;51.198;6.824;2023-03-26T14:00:04;-21581.72;;;10.00;100.00
19890;BME280;10107;51.198;6.824;2023-03-26T14:04:20;-21587.56;;;10.23;100.00
19890;BME280;10107;51.198;6.824;2023-03-26T14:08:26;-21592.06;;;10.40;100.00
19890;BME280;10107;51.198;6.824;2023-03-26T14:12:41;-21599.22;;;10.68;100.00
19890;BME280;10107;51.198;6.824;2023-03-26T14:16:55;-21608.75;;;11.05;100.00
19890;BME280;10107;51.198;6.824;2023-03-26T14:21:34;-21607.16;;;10.99;100.00
19890;BME280;10107;51.198;6.824;2023-03-26T14:25:52;-21595.38;;;10.53;100.00
19890;BME280;10107;51.198;6.824;2023-03-26T14:30:04;-21594.97;;;10.52;100.00
19890;BME280;10107;51.198;6.824;2023-03-26T14:34:25;-21597.38;;;10.61;100.00
19890;BME280;10107;51.198;6.824;2023-03-26T14:38:56;-21601.06;;;10.75;100.00
19890;BME280;10107;51.198;6.824;2023-03-26T14:47:36;-21597.75;;;10.62;100.00
19890;BME280;10107;51.198;6.824;2023-03-26T14:51:49;-21596.56;;;10.58;100.00
19890;BME280;10107;51.198;6.824;2023-03-26T15:00:49;-21594.84;;;10.51;100.00
19890;BME280;10107;51.198;6.824;2023-03-26T15:05:30;-21592.59;;;10.42;100.00
19890;BME280;10107;51.198;6.824;2023-03-26T15:10:16;-21591.81;;;10.39;100.00
19890;BME280;10107;51.198;6.824;2023-03-26T15:19:28;-21598.81;;;10.66;100.00
19890;BME280;10107;51.198;6.824;2023-03-26T15:23:59;-21600.53;;;10.73;100.00
19890;BME280;10107;51.198;6.824;2023-03-26T15:38:24;-21573.91;;;9.70;100.00
19890;BME280;10107;51.198;6.824;2023-03-26T15:42:42;-21571.78;;;9.62;100.00
19890;BME280;10107;51.198;6.824;2023-03-26T15:46:53;-21567.66;;;9.46;100.00
19890;BME280;10107;51.198;6.824;2023-03-26T15:51:04;-21564.75;;;9.35;100.00
19890;BME280;10107;51.198;6.824;2023-03-26T15:55:23;-21558.38;;;9.10;100.00
19890;BME280;10107;51.198;6.824;2023-03-26T15:59:36;-21551.34;;;8.83;100.00
19890;BME280;10107;51.198;6.824;2023-03-26T16:03:42;-21546.56;;;8.64;100.00
19890;BME280;10107;51.198;6.824;2023-03-26T16:07:53;-21548.94;;;8.74;100.00
19890;BME280;10107;51.198;6.824;2023-03-26T16:12:29;-21548.94;;;8.74;100.00
19890;BME280;10107;51.198;6.824;2023-03-26T16:16:51;-21550.94;;;8.81;100.00
19890;BME280;10107;51.198;6.824;2023-03-26T16:20:54;-21548.94;;;8.74;100.00
19890;BME280;10107;51.198;6.824;2023-03-26T16:25:28;-21548.16;;;8.70;100.00
19890;BME280;10107;51.198;6.824;2023-03-26T16:29:33;-21545.75;;;8.61;100.00
19890;BME280;10107;51.198;6.824;2023-03-26T16:33:36;-21540.97;;;8.43;100.00
19890;BME280;10107;51.198;6.824;2023-03-26T16:37:40;-21536.97;;;8.27;100.00
19890;BME280;10107;51.198;6.824;2023-03-26T16:41:58;-21532.31;;;8.09;100.00
19890;BME280;10107;51.198;6.824;2023-03-26T16:46:08;-21527.69;;;7.91;100.00
19890;BME280;10107;51.198;6.824;2023-03-26T16:50:20;-21525.94;;;7.85;100.00
19890;BME280;10107;51.198;6.824;2023-03-26T16:54:38;-21524.22;;;7.78;100.00
19890;BME280;10107;51.198;6.824;2023-03-26T16:58:52;-21523.03;;;7.73;100.00
19890;BME280;10107;51.198;6.824;2023-03-26T17:03:05;-21520.63;;;7.64;100.00
19890;BME280;10107;51.198;6.824;2023-03-26T17:07:15;-21517.16;;;7.51;100.00
19890;BME280;10107;51.198;6.824;2023-03-26T17:11:26;-21514.09;;;7.39;100.00
19890;BME280;10107;51.198;6.824;2023-03-26T17:15:38;-21512.91;;;7.34;100.00
19890;BME280;10107;51.198;6.824;2023-03-26T17:19:49;-21512.38;;;7.32;100.00
19890;BME280;10107;51.198;6.824;2023-03-26T17:24:03;-21510.50;;;7.25;100.00
19890;BME280;10107;51.198;6.824;2023-03-26T17:28:21;-21509.56;;;7.22;100.00
19890;BME280;10107;51.198;6.824;2023-03-26T17:32:52;-21509.31;;;7.21;100.00
19890;BME280;10107;51.198;6.824;2023-03-26T17:36:56;-21507.31;;;7.13;100.00
19890;BME280;10107;51.198;6.824;2023-03-26T17:40:59;-21505.31;;;7.05;100.00
19890;BME280;10107;51.198;6.824;2023-03-26T17:45:01;-21504.78;;;7.03;100.00
19890;BME280;10107;51.198;6.824;2023-03-26T17:49:11;-21505.84;;;7.07;100.00
19890;BME280;10107;51.198;6.824;2023-03-26T17:53:19;-21505.19;;;7.05;100.00
19890;BME280;10107;51.198;6.824;2023-03-26T17:57:26;-21504.13;;;7.01;100.00
19890;BME280;10107;51.198;6.824;2023-03-26T18:01:34;-21503.06;;;6.97;100.00
19890;BME280;10107;51.198;6.824;2023-03-26T18:05:38;-21502.78;;;6.96;100.00
19890;BME280;10107;51.198;6.824;2023-03-26T18:09:55;-21502.00;;;6.92;100.00
19890;BME280;10107;51.198;6.824;2023-03-26T18:14:35;-21501.31;;;6.90;100.00
19890;BME280;10107;51.198;6.824;2023-03-26T18:18:47;-21500.53;;;6.87;100.00
19890;BME280;10107;51.198;6.824;2023-03-26T18:22:50;-21499.19;;;6.82;100.00
19890;BME280;10107;51.198;6.824;2023-03-26T18:26:57;-21498.66;;;6.80;100.00
19890;BME280;10107;51.198;6.824;2023-03-26T18:31:07;-21497.19;;;6.74;100.00
19890;BME280;10107;51.198;6.824;2023-03-26T18:35:15;-21496.13;;;6.70;100.00
19890;BME280;10107;51.198;6.824;2023-03-26T18:39:19;-21495.31;;;6.67;100.00
19890;BME280;10107;51.198;6.824;2023-03-26T18:43:22;-21494.00;;;6.62;100.00
19890;BME280;10107;51.198;6.824;2023-03-26T18:47:26;-21493.47;;;6.60;100.00
19890;BME280;10107;51.198;6.824;2023-03-26T18:51:30;-21492.25;;;6.55;100.00
19890;BME280;10107;51.198;6.824;2023-03-26T18:55:33;-21491.06;;;6.50;100.00
19890;BME280;10107;51.198;6.824;2023-03-26T18:59:42;-21490.25;;;6.47;100.00
19890;BME280;10107;51.198;6.824;2023-03-26T19:03:45;-21488.66;;;6.41;100.00
19890;BME280;10107;51.198;6.824;2023-03-26T19:07:47;-21488.41;;;6.40;100.00
19890;BME280;10107;51.198;6.824;2023-03-26T19:11:53;-21488.41;;;6.40;100.00
19890;BME280;10107;51.198;6.824;2023-03-26T19:15:58;-21488.25;;;6.40;100.00
19890;BME280;10107;51.198;6.824;2023-03-26T19:20:00;-21488.25;;;6.40;100.00
19890;BME280;10107;51.198;6.824;2023-03-26T19:24:07;-21488.53;;;6.41;100.00
19890;BME280;10107;51.198;6.824;2023-03-26T19:28:15;-21488.13;;;6.39;100.00
19890;BME280;10107;51.198;6.824;2023-03-26T19:32:27;-21488.25;;;6.40;100.00
19890;BME280;10107;51.198;6.824;2023-03-26T19:36:32;-21487.31;;;6.36;100.00
19890;BME280;10107;51.198;6.824;2023-03-26T19:40:33;-21486.41;;;6.32;100.00
19890;BME280;10107;51.198;6.824;2023-03-26T19:44:36;-21485.59;;;6.29;100.00
19890;BME280;10107;51.198;6.824;2023-03-26T19:48:44;-21484.94;;;6.27;100.00
19890;BME280;10107;51.198;6.824;2023-03-26T19:53:03;-21483.31;;;6.21;100.00
19890;BME280;10107;51.198;6.824;2023-03-26T19:57:07;-21482.25;;;6.17;100.00
19890;BME280;10107;51.198;6.824;2023-03-26T20:01:14;-21481.19;;;6.12;100.00
19890;BME280;10107;51.198;6.824;2023-03-26T20:05:21;-21479.19;;;6.05;100.00
19890;BME280;10107;51.198;6.824;2023-03-26T20:09:24;-21477.84;;;6.00;100.00
19890;BME280;10107;51.198;6.824;2023-03-26T20:13:26;-21477.06;;;5.97;100.00
19890;BME280;10107;51.198;6.824;2023-03-26T20:17:29;-21476.00;;;5.92;100.00
19890;BME280;10107;51.198;6.824;2023-03-26T20:21:35;-21475.59;;;5.91;100.00
19890;BME280;10107;51.198;6.824;2023-03-26T20:25:40;-21474.13;;;5.85;100.00
19890;BME280;10107;51.198;6.824;2023-03-26T20:29:45;-21473.59;;;5.83;100.00
19890;BME280;10107;51.198;6.824;2023-03-26T20:33:47;-21472.66;;;5.80;100.00
19890;BME280;10107;51.198;6.824;2023-03-26T20:37:51;-21471.97;;;5.77;100.00
19890;BME280;10107;51.198;6.824;2023-03-26T20:41:54;-21470.38;;;5.71;100.00
19890;BME280;10107;51.198;6.824;2023-03-26T20:45:56;-21469.44;;;5.67;100.00
19890;BME280;10107;51.198;6.824;2023-03-26T20:49:58;-21468.13;;;5.62;100.00
19890;BME280;10107;51.198;6.824;2023-03-26T20:54:02;-21466.78;;;5.57;100.00
19890;BME280;10107;51.198;6.824;2023-03-26T20:58:07;-21465.31;;;5.51;100.00
19890;BME280;10107;51.198;6.824;2023-03-26T21:02:10;-21465.03;;;5.50;100.00
19890;BME280;10107;51.198;6.824;2023-03-26T21:06:12;-21464.91;;;5.50;100.00
19890;BME280;10107;51.198;6.824;2023-03-26T21:10:16;-21464.50;;;5.48;97.89
19890;BME280;10107;51.198;6.824;2023-03-26T21:14:20;-21463.03;;;5.43;98.35
19890;BME280;10107;51.198;6.824;2023-03-26T21:18:23;-21462.50;;;5.41;99.20
19890;BME280;10107;51.198;6.824;2023-03-26T21:22:29;-21460.78;;;5.34;95.75
19890;BME280;10107;51.198;6.824;2023-03-26T21:26:41;-21458.78;;;5.26;95.91
19890;BME280;10107;51.198;6.824;2023-03-26T21:30:45;-21457.16;;;5.20;94.53
19890;BME280;10107;51.198;6.824;2023-03-26T21:34:47;-21455.69;;;5.14;95.27
19890;BME280;10107;51.198;6.824;2023-03-26T21:38:50;-21454.91;;;5.11;95.41
19890;BME280;10107;51.198;6.824;2023-03-26T21:42:55;-21453.44;;;5.06;94.98
19890;BME280;10107;51.198;6.824;2023-03-26T21:46:57;-21450.50;;;4.94;92.80
19890;BME280;10107;51.198;6.824;2023-03-26T21:51:02;-21447.94;;;4.85;94.54
19890;BME280;10107;51.198;6.824;2023-03-26T21:55:05;-21445.41;;;4.75;93.51
19890;BME280;10107;51.198;6.824;2023-03-26T21:59:15;-21443.81;;;4.69;94.69
19890;BME280;10107;51.198;6.824;2023-03-26T22:03:22;-21442.59;;;4.64;95.18
19890;BME280;10107;51.198;6.824;2023-03-26T22:07:29;-21440.06;;;4.54;95.24
19890;BME280;10107;51.198;6.824;2023-03-26T22:11:33;-21436.72;;;4.42;95.32
19890;BME280;10107;51.198;6.824;2023-03-26T22:15:36;-21432.03;;;4.24;96.40
19890;BME280;10107;51.198;6.824;2023-03-26T22:19:38;-21428.97;;;4.12;97.45
19890;BME280;10107;51.198;6.824;2023-03-26T22:23:39;-21425.75;;;4.00;98.83
19890;BME280;10107;51.198;6.824;2023-03-26T22:27:41;-21423.88;;;3.92;98.41